Time;durP1;ratioP1;P1;durP2;ratioP2;P2;SDS_P1;SDS_P2;PMS_P1;PMS_P2;Temp;Humidity;BMP_temperature;BMP_pressure;BME280_temperature;BME280_humidity;BME280_pressure;Samples;Min_cycle;Max_cycle;Signal;HPM_P1;HPM_P2
2021/12/22 00:02:27;;;;;;;6.10;3.20;;;20.20;48.40;;;;;;5032379;28;20076;-71
2021/12/22 00:04:54;;;;;;;;;;;20.20;48.40;;;;;;5031543;28;20111;-72
2021/12/22 00:07:19;;;;;;;6.22;3.10;;;20.20;48.30;;;;;;5032144;28;19924;-71
2021/12/22 00:09:45;;;;;;;5.07;2.92;;;20.10;48.30;;;;;;5032454;28;20048;-71
2021/12/22 00:12:11;;;;;;;5.47;3.30;;;20.10;48.30;;;;;;5015175;28;20485;-72
2021/12/22 00:14:36;;;;;;;5.05;3.38;;;20.10;48.20;;;;;;5031620;28;20037;-71
2021/12/22 00:17:02;;;;;;;5.38;3.33;;;20.10;48.10;;;;;;5031051;28;20095;-71
2021/12/22 00:19:28;;;;;;;5.70;3.30;;;20.10;48.10;;;;;;5031400;28;20049;-71
2021/12/22 00:21:53;;;;;;;4.95;3.38;;;20.10;48.00;;;;;;5031604;28;20064;-71
2021/12/22 00:24:19;;;;;;;4.88;3.55;;;20.00;47.90;;;;;;5032651;28;20064;-72
2021/12/22 00:26:44;;;;;;;4.50;3.25;;;20.00;47.80;;;;;;5032478;28;20064;-72
2021/12/22 00:29:12;;;;;;;5.20;3.60;;;20.00;47.80;;;;;;5029375;28;20401;-71
2021/12/22 00:31:45;;;;;;;6.17;3.77;;;20.00;47.80;;;;;;5031658;28;20034;-71
2021/12/22 00:34:16;;;;;;;5.90;3.60;;;20.00;47.80;;;;;;5031241;28;20085;-71
2021/12/22 00:36:42;;;;;;;5.78;3.95;;;20.00;47.70;;;;;;5031734;28;20064;-71
2021/12/22 00:39:08;;;;;;;6.38;3.50;;;19.90;47.60;;;;;;5031224;28;20378;-71
2021/12/22 00:41:33;;;;;;;5.72;3.38;;;19.90;47.60;;;;;;5031198;28;20042;-71
2021/12/22 00:43:58;;;;;;;7.18;3.75;;;19.90;47.60;;;;;;5031512;28;20080;-71
2021/12/22 00:46:24;;;;;;;5.82;3.13;;;19.90;47.60;;;;;;5031144;28;20393;-71
2021/12/22 00:48:49;;;;;;;5.68;3.13;;;19.90;47.50;;;;;;5031107;28;20049;-71
2021/12/22 00:51:15;;;;;;;6.15;3.60;;;19.90;47.40;;;;;;5031600;28;20049;-71
2021/12/22 00:53:40;;;;;;;5.70;3.88;;;19.80;47.40;;;;;;5030746;28;20087;-72
2021/12/22 00:56:07;;;;;;;5.43;3.20;;;19.80;47.40;;;;;;5030869;28;20057;-71
2021/12/22 00:58:33;;;;;;;5.80;3.47;;;19.80;47.40;;;;;;5030181;28;20058;-71
2021/12/22 01:00:59;;;;;;;5.15;3.35;;;19.80;47.30;;;;;;5030950;28;20060;-71
2021/12/22 01:03:25;;;;;;;4.30;2.83;;;19.80;47.20;;;;;;5014871;28;20107;-72
2021/12/22 01:05:50;;;;;;;6.60;3.25;;;19.80;47.20;;;;;;5030859;28;20053;-72
2021/12/22 01:08:19;;;;;;;5.78;3.45;;;19.80;47.20;;;;;;5031124;28;20038;-72
2021/12/22 01:10:44;;;;;;;6.70;3.67;;;19.80;47.20;;;;;;5030033;28;20092;-71
2021/12/22 01:13:10;;;;;;;5.15;3.20;;;19.80;47.20;;;;;;5031173;28;20037;-71
2021/12/22 01:15:36;;;;;;;5.95;3.67;;;19.80;47.20;;;;;;5032347;28;20596;-71
2021/12/22 01:18:10;;;;;;;5.20;3.45;;;19.80;47.20;;;;;;5030892;28;20501;-71
2021/12/22 01:20:50;;;;;;;4.90;3.20;;;19.70;47.10;;;;;;5032096;28;20045;-70
2021/12/22 01:23:18;;;;;;;5.63;3.65;;;19.80;47.10;;;;;;5030975;28;20045;-72
2021/12/22 01:25:44;;;;;;;;;;;19.80;47.10;;;;;;5031276;28;20406;-72
2021/12/22 01:28:10;;;;;;;6.50;3.97;;;19.70;47.10;;;;;;5031380;28;19921;-71
2021/12/22 01:30:42;;;;;;;4.93;3.20;;;19.70;47.20;;;;;;5030964;28;20474;-71
2021/12/22 01:33:07;;;;;;;6.00;3.42;;;19.80;47.10;;;;;;5030113;28;20045;-71
2021/12/22 01:35:33;;;;;;;5.60;3.80;;;19.80;47.10;;;;;;5030454;28;20176;-71
2021/12/22 01:37:59;;;;;;;5.22;3.45;;;19.80;47.00;;;;;;5030542;28;20072;-71
2021/12/22 01:40:24;;;;;;;5.40;3.60;;;19.80;47.00;;;;;;5032140;28;20048;-71
2021/12/22 01:42:51;;;;;;;5.40;3.47;;;19.80;46.90;;;;;;5033613;28;20049;-71
2021/12/22 01:45:29;;;;;;;5.82;3.70;;;19.80;47.00;;;;;;5034118;28;20045;-71
2021/12/22 01:50:48;;;;;;;5.25;3.33;;;19.80;46.90;;;;;;5033929;28;20409;-71
2021/12/22 01:53:23;;;;;;;5.20;3.15;;;19.80;46.80;;;;;;5033131;28;20493;-71
2021/12/22 01:56:00;;;;;;;5.05;3.38;;;19.80;47.60;;;;;;5033533;28;20087;-71
2021/12/22 01:58:32;;;;;;;5.63;3.28;;;19.80;46.80;;;;;;5033907;28;20095;-71
2021/12/22 02:00:57;;;;;;;5.60;3.60;;;19.80;46.90;;;;;;5033174;28;20056;-72
2021/12/22 02:03:23;;;;;;;5.28;3.55;;;19.80;46.90;;;;;;5035439;28;20053;-71
2021/12/22 02:05:48;;;;;;;5.38;3.45;;;19.80;46.90;;;;;;5033246;28;20045;-71
2021/12/22 02:08:14;;;;;;;5.20;3.20;;;19.80;46.80;;;;;;5033083;28;20042;-71
2021/12/22 02:10:46;;;;;;;6.25;3.85;;;19.80;46.80;;;;;;5033691;28;20061;-71
2021/12/22 02:13:16;;;;;;;5.18;3.50;;;19.80;46.80;;;;;;5033270;28;20046;-71
2021/12/22 02:15:43;;;;;;;6.25;3.67;;;19.90;46.80;;;;;;5034256;28;20049;-71
2021/12/22 02:18:14;;;;;;;5.97;3.30;;;19.90;46.70;;;;;;5035040;28;20064;-70
2021/12/22 02:20:40;;;;;;;6.18;3.63;;;19.80;46.70;;;;;;5033311;28;20045;-71
2021/12/22 02:23:06;;;;;;;6.15;3.85;;;19.80;46.70;;;;;;5013059;28;20049;-71
2021/12/22 02:25:38;;;;;;;5.32;3.72;;;19.80;46.60;;;;;;5013575;28;20045;-71
2021/12/22 02:28:06;;;;;;;6.03;3.83;;;19.80;46.60;;;;;;5012702;28;20122;-71
2021/12/22 02:30:33;;;;;;;6.57;3.88;;;19.90;46.60;;;;;;5026694;28;20045;-71
2021/12/22 02:36:06;;;;;;;6.03;3.70;;;19.90;46.50;;;;;;5034473;28;20119;-71
2021/12/22 02:38:40;;;;;;;6.13;3.80;;;19.90;46.60;;;;;;5033294;28;20069;-71
2021/12/22 02:41:08;;;;;;;6.35;4.20;;;19.90;46.50;;;;;;5032966;28;20037;-70
2021/12/22 02:43:34;;;;;;;;;;;19.90;46.40;;;;;;5033049;28;20068;-71
2021/12/22 02:46:00;;;;;;;7.43;4.25;;;19.90;46.60;;;;;;5032309;28;19920;-70
2021/12/22 02:48:30;;;;;;;6.05;4.10;;;19.90;46.50;;;;;;5033860;28;20046;-72
2021/12/22 02:50:57;;;;;;;5.45;3.92;;;19.90;46.40;;;;;;5033218;28;20041;-71
2021/12/22 02:53:28;;;;;;;6.22;3.90;;;19.90;46.40;;;;;;5049267;28;20490;-71
2021/12/22 02:56:05;;;;;;;6.53;4.20;;;19.90;46.40;;;;;;5033036;28;20046;-71
2021/12/22 02:58:42;;;;;;;6.57;4.30;;;19.90;46.40;;;;;;5033671;28;20145;-71
2021/12/22 03:04:01;;;;;;;6.50;4.13;;;19.90;46.30;;;;;;5031131;28;20103;-70
2021/12/22 03:08:53;;;;;;;6.82;4.22;;;19.90;46.20;;;;;;5033203;28;20056;-71
2021/12/22 03:11:19;;;;;;;6.25;4.13;;;19.90;46.10;;;;;;5033335;28;20049;-71
2021/12/22 03:13:44;;;;;;;8.10;4.60;;;19.90;46.10;;;;;;5033454;28;20502;-72
2021/12/22 03:16:10;;;;;;;6.65;4.30;;;19.90;46.20;;;;;;5031982;28;20076;-71
2021/12/22 03:18:36;;;;;;;7.60;4.88;;;19.90;46.10;;;;;;5032968;28;20049;-71
2021/12/22 03:21:15;;;;;;;5.93;4.03;;;19.90;46.10;;;;;;5031913;28;20096;-71
2021/12/22 03:23:40;;;;;;;7.03;4.40;;;19.90;46.10;;;;;;5032365;28;20046;-71
2021/12/22 03:26:06;;;;;;;7.00;4.43;;;19.90;46.00;;;;;;5047858;28;20041;-72
2021/12/22 03:28:31;;;;;;;7.22;4.43;;;19.90;45.90;;;;;;5048578;28;20051;-71
2021/12/22 03:30:59;;;;;;;8.05;4.40;;;19.90;45.90;;;;;;5033264;28;20406;-71
2021/12/22 03:33:24;;;;;;;7.22;4.63;;;20.00;46.00;;;;;;5032293;28;20056;-72
2021/12/22 03:35:50;;;;;;;7.43;4.60;;;20.00;46.00;;;;;;5032988;28;20038;-71
2021/12/22 03:38:15;;;;;;;7.75;4.63;;;20.00;46.00;;;;;;5031110;28;20045;-71
2021/12/22 03:40:41;;;;;;;7.90;4.70;;;20.00;46.00;;;;;;5032040;28;20042;-72
2021/12/22 03:43:06;;;;;;;8.73;4.80;;;20.00;45.90;;;;;;5033482;28;20048;-71
2021/12/22 03:45:32;;;;;;;7.78;4.90;;;20.00;45.90;;;;;;5047887;28;20494;-71
2021/12/22 03:47:57;;;;;;;6.70;4.68;;;20.00;45.90;;;;;;5041429;28;20173;-71
2021/12/22 03:50:23;;;;;;;7.32;4.82;;;20.00;45.80;;;;;;5028482;28;20049;-71
2021/12/22 03:52:49;;;;;;;8.15;4.95;;;20.00;45.80;;;;;;5027602;28;20061;-71
2021/12/22 03:55:15;;;;;;;8.40;5.30;;;20.00;45.80;;;;;;5013536;28;20052;-71
2021/12/22 03:57:40;;;;;;;7.88;5.22;;;20.00;45.70;;;;;;5028080;28;20425;-72
2021/12/22 04:00:07;;;;;;;8.38;5.18;;;20.00;45.70;;;;;;5027610;28;20058;-71
2021/12/22 04:02:33;;;;;;;7.65;4.82;;;20.00;45.70;;;;;;5027944;28;20052;-71
2021/12/22 04:04:59;;;;;;;7.60;4.60;;;20.00;45.70;;;;;;5009947;28;20053;-71
2021/12/22 04:07:24;;;;;;;8.63;5.13;;;20.00;45.70;;;;;;5011496;28;20104;-71
2021/12/22 04:09:52;;;;;;;7.72;4.97;;;20.00;45.60;;;;;;5012031;28;20099;-71
2021/12/22 04:12:18;;;;;;;7.97;4.78;;;20.00;45.60;;;;;;5013304;28;20092;-71
2021/12/22 04:14:43;;;;;;;8.02;5.00;;;20.00;45.60;;;;;;5012303;28;20077;-71
2021/12/22 04:17:09;;;;;;;7.90;5.20;;;20.00;45.60;;;;;;5025187;28;20052;-71
2021/12/22 04:19:34;;;;;;;9.02;5.43;;;20.00;45.50;;;;;;5031583;28;20437;-70
2021/12/22 04:22:00;;;;;;;7.75;5.07;;;20.00;45.50;;;;;;5031483;28;20567;-70
2021/12/22 04:24:25;;;;;;;7.97;5.82;;;20.00;45.50;;;;;;5031423;28;20111;-70
2021/12/22 04:26:51;;;;;;;7.82;5.22;;;20.00;45.40;;;;;;5030299;28;20520;-70
2021/12/22 04:29:17;;;;;;;8.55;5.60;;;20.00;45.40;;;;;;5029861;28;20050;-70
2021/12/22 04:31:43;;;;;;;8.50;5.50;;;20.00;45.40;;;;;;5030846;28;20068;-70
2021/12/22 04:34:08;;;;;;;7.50;4.93;;;20.00;45.30;;;;;;5032660;28;20691;-70
2021/12/22 04:36:38;;;;;;;8.32;5.18;;;20.00;45.30;;;;;;5031717;28;20119;-70
2021/12/22 04:39:04;;;;;;;8.27;5.30;;;20.00;45.20;;;;;;5030958;28;20084;-70
2021/12/22 04:41:30;;;;;;;8.63;4.93;;;20.00;45.30;;;;;;5031096;28;20121;-70
2021/12/22 04:43:55;;;;;;;7.07;4.55;;;20.00;45.30;;;;;;5031772;28;22008;-70
2021/12/22 04:46:21;;;;;;;7.20;4.82;;;20.00;45.20;;;;;;5032301;28;20072;-70
2021/12/22 04:48:47;;;;;;;9.63;5.90;;;20.00;45.30;;;;;;5031383;28;20382;-70
2021/12/22 04:51:22;;;;;;;8.85;5.35;;;20.00;45.20;;;;;;5031253;28;20049;-70
2021/12/22 04:53:53;;;;;;;7.93;5.00;;;20.00;45.20;;;;;;5046361;28;20049;-70
2021/12/22 04:56:18;;;;;;;7.95;5.30;;;20.00;45.20;;;;;;5030635;28;20091;-69
2021/12/22 04:58:44;;;;;;;8.18;5.40;;;20.00;45.20;;;;;;5031936;28;20444;-70
2021/12/22 05:01:09;;;;;;;8.13;5.05;;;20.00;45.20;;;;;;5029922;28;20137;-70
2021/12/22 05:03:35;;;;;;;9.20;5.45;;;20.00;45.20;;;;;;5029640;28;20495;-70
2021/12/22 05:06:02;;;;;;;7.82;5.50;;;20.00;45.10;;;;;;5029009;28;20067;-70
2021/12/22 05:08:29;;;;;;;7.57;5.40;;;20.00;45.10;;;;;;5031153;28;20057;-70
2021/12/22 05:10:55;;;;;;;7.70;5.43;;;20.00;45.10;;;;;;5029824;28;20038;-70
2021/12/22 05:13:20;;;;;;;7.72;5.00;;;20.00;45.10;;;;;;5031032;28;20304;-70
2021/12/22 05:15:46;;;;;;;7.07;4.97;;;20.00;45.10;;;;;;5032324;28;20053;-70
2021/12/22 05:18:23;;;;;;;8.27;5.60;;;20.00;45.00;;;;;;5035023;28;20124;-70
2021/12/22 05:20:49;;;;;;;7.87;5.10;;;20.00;45.00;;;;;;5036189;28;20091;-70
2021/12/22 05:23:16;;;;;;;8.07;5.18;;;20.00;45.00;;;;;;5034787;28;20444;-70
2021/12/22 05:25:41;;;;;;;8.95;5.18;;;20.00;45.00;;;;;;5033638;28;20144;-71
2021/12/22 05:28:07;;;;;;;7.90;5.28;;;20.00;45.00;;;;;;5036020;28;20121;-70
2021/12/22 05:30:32;;;;;;;9.07;5.10;;;20.10;45.00;;;;;;5035558;28;20081;-70
2021/12/22 05:32:58;;;;;;;7.78;5.20;;;20.00;44.80;;;;;;5033265;28;20488;-70
2021/12/22 05:35:23;;;;;;;7.20;4.78;;;20.00;44.90;;;;;;5035475;28;20045;-69
2021/12/22 05:37:49;;;;;;;7.25;4.80;;;20.00;44.80;;;;;;5025001;28;20050;-70
2021/12/22 05:40:15;;;;;;;7.82;4.90;;;20.00;44.80;;;;;;5014906;28;20054;-70
2021/12/22 05:42:42;;;;;;;7.50;4.63;;;20.10;44.90;;;;;;5015703;28;20478;-70
2021/12/22 05:45:08;;;;;;;6.85;4.55;;;20.00;44.80;;;;;;5013556;28;20470;-70
2021/12/22 05:47:33;;;;;;;6.35;4.75;;;20.00;44.80;;;;;;5014440;28;20046;-70
2021/12/22 05:49:59;;;;;;;7.03;4.88;;;20.10;44.80;;;;;;5014360;28;20086;-70
2021/12/22 05:52:24;;;;;;;7.88;4.70;;;20.10;44.80;;;;;;5013737;28;20474;-70
2021/12/22 05:54:50;;;;;;;8.23;5.05;;;20.10;44.80;;;;;;5032026;28;20120;-70
2021/12/22 05:57:15;;;;;;;7.95;4.78;;;20.10;44.90;;;;;;5034025;28;20049;-69
2021/12/22 05:59:41;;;;;;;7.05;4.65;;;20.10;44.80;;;;;;5034030;28;20088;-70
2021/12/22 06:02:07;;;;;;;8.50;5.00;;;20.10;44.90;;;;;;5033965;28;20128;-70
2021/12/22 06:04:32;;;;;;;7.82;4.88;;;20.10;44.80;;;;;;5034144;28;20103;-70
2021/12/22 06:06:58;;;;;;;6.55;4.18;;;20.10;44.80;;;;;;5034308;28;20091;-70
2021/12/22 06:09:23;;;;;;;6.78;4.72;;;20.10;44.80;;;;;;5033908;28;20129;-69
2021/12/22 06:11:49;;;;;;;6.40;4.28;;;20.10;44.80;;;;;;5033433;28;20045;-70
2021/12/22 06:14:14;;;;;;;6.65;3.95;;;20.10;44.80;;;;;;5033127;28;20056;-70
2021/12/22 06:16:40;;;;;;;6.85;4.32;;;20.10;44.80;;;;;;5034873;28;20049;-70
2021/12/22 06:19:08;;;;;;;6.93;4.20;;;20.10;44.80;;;;;;5035248;28;20045;-69
2021/12/22 06:21:34;;;;;;;6.95;4.88;;;20.10;44.80;;;;;;5032068;28;20046;-69
2021/12/22 06:24:00;;;;;;;6.70;4.15;;;20.10;44.70;;;;;;5034554;28;20436;-70
2021/12/22 06:26:25;;;;;;;6.93;4.43;;;20.10;44.70;;;;;;5033471;28;20045;-71
2021/12/22 06:28:51;;;;;;;6.68;4.05;;;20.10;44.60;;;;;;5032619;28;20444;-70
2021/12/22 06:31:17;;;;;;;6.63;4.05;;;20.10;44.60;;;;;;5033693;28;20094;-70
2021/12/22 06:33:42;;;;;;;7.13;4.45;;;20.10;44.60;;;;;;5034389;28;20045;-68
2021/12/22 06:36:08;;;;;;;6.55;4.40;;;20.10;44.60;;;;;;5033714;28;20045;-67
2021/12/22 06:38:34;;;;;;;6.68;4.22;;;20.10;44.60;;;;;;5033366;28;20389;-68
2021/12/22 06:40:59;;;;;;;7.03;4.13;;;20.10;44.60;;;;;;5016763;28;20513;-68
2021/12/22 06:43:25;;;;;;;6.43;4.22;;;20.10;44.60;;;;;;5033792;28;20041;-68
2021/12/22 06:45:50;;;;;;;7.32;4.55;;;20.10;44.60;;;;;;5033963;28;20046;-68
2021/12/22 06:48:16;;;;;;;6.22;3.70;;;20.10;44.60;;;;;;5032294;28;20048;-68
2021/12/22 06:50:41;;;;;;;5.82;4.00;;;20.10;44.50;;;;;;5034191;28;20386;-68
2021/12/22 06:53:07;;;;;;;6.57;4.38;;;20.10;44.50;;;;;;5031730;28;20076;-64
2021/12/22 06:55:33;;;;;;;7.40;4.30;;;20.00;44.50;;;;;;5033018;28;20111;-74
2021/12/22 06:57:59;;;;;;;6.20;3.95;;;20.10;44.50;;;;;;5032277;28;20075;-75
2021/12/22 07:00:25;;;;;;;6.38;4.40;;;20.10;44.50;;;;;;5033827;28;20511;-73
2021/12/22 07:02:52;;;;;;;7.07;4.65;;;20.10;44.40;;;;;;5032003;28;20172;-74
2021/12/22 07:05:18;;;;;;;7.15;5.07;;;20.10;44.50;;;;;;5031568;28;20128;-73
2021/12/22 07:07:43;;;;;;;8.60;4.60;;;20.10;44.50;;;;;;5048856;28;20128;-73
2021/12/22 07:10:10;;;;;;;6.85;4.38;;;20.10;44.50;;;;;;5048334;28;20052;-73
2021/12/22 07:12:36;;;;;;;7.65;4.53;;;20.10;44.60;;;;;;5032705;28;20105;-73
2021/12/22 07:15:03;;;;;;;7.22;4.28;;;20.10;44.60;;;;;;5032354;28;20094;-73
2021/12/22 07:17:28;;;;;;;7.32;4.57;;;20.10;44.60;;;;;;5033039;28;20033;-73
2021/12/22 07:19:54;;;;;;;7.40;4.32;;;20.10;44.70;;;;;;5033463;28;20060;-67
2021/12/22 07:22:19;;;;;;;8.35;4.32;;;20.10;44.80;;;;;;5049078;28;20050;-74
2021/12/22 07:24:45;;;;;;;9.52;4.15;;;20.10;44.80;;;;;;5048000;28;20049;-72
2021/12/22 07:27:10;;;;;;;9.68;4.30;;;20.10;45.00;;;;;;5048663;28;20041;-76
2021/12/22 07:29:37;;;;;;;8.23;4.55;;;20.10;45.20;;;;;;5048976;28;20045;-77
2021/12/22 07:32:04;;;;;;;6.50;3.95;;;20.10;45.50;;;;;;5047660;28;20046;-78
2021/12/22 07:34:35;;;;;;;6.57;4.15;;;20.10;45.70;;;;;;5032449;28;20533;-68
2021/12/22 07:37:05;;;;;;;7.95;4.07;;;20.10;45.90;;;;;;5033158;28;20045;-74
2021/12/22 07:39:31;;;;;;;9.85;4.18;;;20.10;46.10;;;;;;5014950;28;20084;-76
2021/12/22 07:41:56;;;;;;;8.48;4.20;;;20.10;46.20;;;;;;5032804;28;20167;-74
2021/12/22 07:44:22;;;;;;;7.18;4.10;;;20.10;46.20;;;;;;5031895;28;20049;-74
2021/12/22 07:46:47;;;;;;;6.45;4.50;;;20.10;46.40;;;;;;5032460;28;20116;-72
2021/12/22 07:49:13;;;;;;;8.00;4.20;;;20.10;46.40;;;;;;5048622;28;20053;-71
2021/12/22 07:51:38;;;;;;;6.18;3.92;;;20.10;46.40;;;;;;5047798;28;20052;-68
2021/12/22 07:54:04;;;;;;;6.63;4.40;;;20.10;46.40;;;;;;5032699;28;20545;-70
2021/12/22 07:56:30;;;;;;;6.97;3.95;;;20.10;46.40;;;;;;5032899;28;20102;-76
2021/12/22 07:58:55;;;;;;;7.20;4.53;;;20.10;46.20;;;;;;5030559;28;20049;-74
2021/12/22 08:01:21;;;;;;;6.95;4.20;;;20.10;46.20;;;;;;5032831;28;20084;-74
2021/12/22 08:03:46;;;;;;;7.90;4.45;;;20.10;46.00;;;;;;5031308;28;20473;-74
2021/12/22 08:06:12;;;;;;;7.40;4.18;;;20.10;46.10;;;;;;5031863;28;20049;-73
2021/12/22 08:08:38;;;;;;;7.03;4.03;;;20.10;46.10;;;;;;5033005;28;20127;-71
2021/12/22 08:11:03;;;;;;;7.05;4.22;;;20.20;46.30;;;;;;5031469;28;20040;-67
2021/12/22 08:13:29;;;;;;;6.18;3.85;;;20.10;46.10;;;;;;5047473;28;20049;-75
2021/12/22 08:15:54;;;;;;;7.65;4.53;;;20.20;46.10;;;;;;5047878;28;20048;-72
2021/12/22 08:18:20;;;;;;;5.78;4.20;;;20.20;46.20;;;;;;5048227;28;20057;-72
2021/12/22 08:20:46;;;;;;;7.40;4.22;;;20.20;46.20;;;;;;5046549;28;20490;-73
2021/12/22 08:23:12;;;;;;;7.60;4.75;;;20.20;46.20;;;;;;5044148;28;20092;-73
2021/12/22 08:25:38;;;;;;;6.22;3.95;;;20.20;46.30;;;;;;5032389;28;20497;-73
2021/12/22 08:28:05;;;;;;;7.68;4.13;;;20.20;46.30;;;;;;5030320;28;20042;-72
2021/12/22 08:30:30;;;;;;;6.88;4.38;;;20.20;46.30;;;;;;5031539;28;20071;-72
2021/12/22 08:32:58;;;;;;;8.52;4.10;;;20.20;46.30;;;;;;5031006;28;20038;-72
2021/12/22 08:35:26;;;;;;;;;;;20.20;46.30;;;;;;5030935;28;20112;-71
2021/12/22 08:40:35;;;;;;;6.32;3.85;;;20.20;46.30;;;;;;5031419;28;20493;-72
2021/12/22 08:43:01;;;;;;;7.47;4.72;;;20.20;46.30;;;;;;5031747;28;20042;-71
2021/12/22 08:45:26;;;;;;;7.70;4.57;;;20.20;46.30;;;;;;5047606;28;20057;-71
2021/12/22 08:47:52;;;;;;;8.00;4.40;;;20.20;46.40;;;;;;5046611;28;20099;-72
2021/12/22 08:50:18;;;;;;;7.47;4.63;;;20.20;46.40;;;;;;5031605;28;20083;-67
2021/12/22 08:52:43;;;;;;;6.80;4.07;;;20.20;46.30;;;;;;5036062;28;20103;-73
2021/12/22 08:55:09;;;;;;;6.53;4.30;;;20.20;46.30;;;;;;5051084;28;20050;-73
2021/12/22 08:57:35;;;;;;;6.82;4.38;;;20.20;46.40;;;;;;5036514;28;20050;-75
2021/12/22 09:00:03;;;;;;;7.78;4.35;;;20.30;46.40;;;;;;5051274;28;20148;-74
2021/12/22 09:02:29;;;;;;;6.40;4.25;;;20.20;46.30;;;;;;5034038;28;20042;-72
2021/12/22 09:04:54;;;;;;;6.93;4.50;;;20.20;46.30;;;;;;5034149;28;20051;-75
2021/12/22 09:07:20;;;;;;;6.97;4.43;;;20.20;46.20;;;;;;5034192;28;20049;-71
2021/12/22 09:09:45;;;;;;;6.05;3.65;;;20.20;46.30;;;;;;5034928;28;20037;-72
2021/12/22 09:12:11;;;;;;;6.18;4.30;;;20.20;46.30;;;;;;5035589;28;20124;-72
2021/12/22 09:14:36;;;;;;;7.78;4.22;;;20.20;46.20;;;;;;5034527;28;20049;-70
2021/12/22 09:17:02;;;;;;;6.45;4.15;;;20.20;46.20;;;;;;5034678;28;20041;-70
2021/12/22 09:19:28;;;;;;;8.43;4.53;;;20.20;46.20;;;;;;5033827;28;20464;-72
2021/12/22 09:21:53;;;;;;;7.35;4.32;;;20.20;46.20;;;;;;5033797;28;20038;-70
2021/12/22 09:24:19;;;;;;;6.22;4.03;;;20.20;46.20;;;;;;5034904;28;20578;-71
2021/12/22 09:26:45;;;;;;;7.20;4.15;;;20.20;46.20;;;;;;5034519;28;20120;-72
2021/12/22 09:29:10;;;;;;;7.10;4.03;;;20.30;46.20;;;;;;5035391;28;20046;-72
2021/12/22 09:31:36;;;;;;;7.68;4.38;;;20.20;46.20;;;;;;5033757;28;20064;-73
2021/12/22 09:34:02;;;;;;;7.68;4.72;;;20.20;46.20;;;;;;5034295;28;20037;-72
2021/12/22 09:36:27;;;;;;;6.57;4.13;;;20.20;46.10;;;;;;5033849;28;20044;-72
2021/12/22 09:38:53;;;;;;;6.75;4.18;;;20.30;46.20;;;;;;5033290;28;20103;-72
2021/12/22 09:41:18;;;;;;;7.53;4.40;;;20.30;46.20;;;;;;5034775;28;20051;-71
2021/12/22 09:43:44;;;;;;;6.78;4.40;;;20.30;46.00;;;;;;5034312;28;20474;-72
2021/12/22 09:46:13;;;;;;;8.32;4.65;;;20.30;46.10;;;;;;5033696;28;20045;-71
2021/12/22 09:53:40;;;;;;;6.90;4.30;;;20.30;46.40;;;;;;5033933;28;20490;-73
2021/12/22 09:56:06;;;;;;;7.72;4.65;;;20.30;46.50;;;;;;5034289;28;20041;-70
2021/12/22 09:58:32;;;;;;;7.43;4.28;;;20.30;46.60;;;;;;5032630;28;20094;-71
2021/12/22 10:00:57;;;;;;;7.00;4.50;;;20.30;46.60;;;;;;5035556;28;20045;-71
2021/12/22 10:03:23;;;;;;;7.55;4.07;;;20.30;46.70;;;;;;5033170;28;20057;-71
2021/12/22 10:05:49;;;;;;;7.45;4.55;;;20.30;46.70;;;;;;5032084;28;20098;-72
2021/12/22 10:08:25;;;;;;;9.75;4.88;;;20.30;46.70;;;;;;5033358;28;20037;-72
2021/12/22 10:11:03;;;;;;;7.97;4.38;;;20.30;46.70;;;;;;5032685;28;20049;-72
2021/12/22 10:13:29;;;;;;;8.13;4.90;;;20.40;46.80;;;;;;5031843;28;20050;-73
2021/12/22 10:15:56;;;;;;;8.32;4.75;;;20.40;46.80;;;;;;5032978;28;20067;-76
2021/12/22 10:18:23;;;;;;;8.93;4.72;;;20.40;46.70;;;;;;5033100;28;20037;-76
2021/12/22 10:20:50;;;;;;;6.80;4.60;;;20.40;46.80;;;;;;5033214;28;20509;-75
2021/12/22 10:23:27;;;;;;;7.77;4.67;;;20.40;46.70;;;;;;5033303;28;20489;-76
2021/12/22 10:26:06;;;;;;;8.65;4.82;;;20.40;46.80;;;;;;5032658;28;20049;-69
2021/12/22 10:28:53;;;;;;;10.05;5.30;;;20.40;46.70;;;;;;5039642;28;20041;-69
2021/12/22 10:31:40;;;;;;;8.00;4.90;;;20.40;46.60;;;;;;5033999;28;20041;-68
2021/12/22 10:34:10;;;;;;;8.27;4.80;;;20.40;46.60;;;;;;5033671;28;20049;-69
2021/12/22 10:36:47;;;;;;;9.65;5.38;;;20.40;46.90;;;;;;5033335;28;20065;-70
2021/12/22 10:39:30;;;;;;;8.32;4.82;;;20.40;47.20;;;;;;5034554;28;20079;-70
2021/12/22 10:42:08;;;;;;;9.27;5.38;;;20.40;46.40;;;;;;5032290;28;20053;-74
2021/12/22 10:44:41;;;;;;;8.10;4.70;;;20.40;46.50;;;;;;5034468;28;20037;-75
2021/12/22 10:47:22;;;;;;;7.13;4.68;;;20.40;46.60;;;;;;5033330;28;20100;-71
2021/12/22 10:50:00;;;;;;;8.45;4.97;;;20.40;46.60;;;;;;5034149;28;20114;-72
2021/12/22 10:52:26;;;;;;;10.27;5.50;;;20.40;46.50;;;;;;5032621;28;20055;-70
2021/12/22 10:54:52;;;;;;;8.68;5.15;;;20.40;46.60;;;;;;5032040;28;20116;-64
2021/12/22 10:57:17;;;;;;;10.43;5.38;;;20.40;46.60;;;;;;5000984;28;20048;-71
2021/12/22 10:59:49;;;;;;;8.50;4.45;;;20.40;46.60;;;;;;5032543;28;20045;-71
2021/12/22 11:02:25;;;;;;;9.43;4.63;;;20.40;46.60;;;;;;5030464;28;20129;-78
2021/12/22 11:04:50;;;;;;;7.50;5.05;;;20.40;46.80;;;;;;5032378;28;20045;-72
2021/12/22 11:07:27;;;;;;;9.82;5.47;;;20.50;47.00;;;;;;5033496;28;20103;-70
2021/12/22 11:09:53;;;;;;;8.15;4.57;;;20.50;47.00;;;;;;5047413;28;20128;-69
2021/12/22 11:12:39;;;;;;;8.77;5.05;;;20.50;46.80;;;;;;5031999;28;20119;-69
2021/12/22 11:15:05;;;;;;;9.38;4.88;;;20.50;46.90;;;;;;5033233;28;20053;-68
2021/12/22 11:17:31;;;;;;;9.13;5.05;;;20.50;46.90;;;;;;5031797;28;20485;-68
2021/12/22 11:20:04;;;;;;;8.00;4.28;;;20.50;46.90;;;;;;5032624;28;20047;-69
2021/12/22 11:23:00;;;;;;;9.55;4.90;;;20.50;46.90;;;;;;5030068;28;20118;-68
2021/12/22 11:25:26;;;;;;;9.07;4.95;;;20.50;46.90;;;;;;5031165;28;20386;-68
2021/12/22 11:27:51;;;;;;;7.72;4.63;;;20.50;46.80;;;;;;5031897;28;20048;-68
2021/12/22 11:30:17;;;;;;;9.43;4.60;;;20.50;46.90;;;;;;5031741;28;20041;-68
2021/12/22 11:32:43;;;;;;;7.22;4.50;;;20.50;46.90;;;;;;5031864;28;20053;-68
2021/12/22 11:35:10;;;;;;;8.63;5.07;;;20.50;46.90;;;;;;5032152;28;20405;-68
2021/12/22 11:37:35;;;;;;;8.18;4.95;;;20.50;47.00;;;;;;5032439;28;20041;-77
2021/12/22 11:40:03;;;;;;;8.85;4.95;;;20.50;47.00;;;;;;5033260;28;20503;-67
2021/12/22 11:42:31;;;;;;;8.83;5.10;;;20.50;47.70;;;;;;5032156;28;20046;-69
2021/12/22 11:45:04;;;;;;;8.35;4.75;;;20.50;46.60;;;;;;5031111;28;20068;-70
2021/12/22 11:47:29;;;;;;;8.88;5.05;;;20.50;46.30;;;;;;5031867;28;20548;-72
2021/12/22 11:49:59;;;;;;;9.35;5.05;;;20.50;46.30;;;;;;5031792;28;20037;-71
2021/12/22 11:52:39;;;;;;;10.30;4.97;;;20.50;46.20;;;;;;5032817;28;20049;-69
2021/12/22 11:55:17;;;;;;;7.65;4.93;;;20.50;45.90;;;;;;5051698;28;20056;-70
2021/12/22 11:57:44;;;;;;;10.13;5.38;;;20.50;45.80;;;;;;5051992;28;20083;-70
2021/12/22 12:00:30;;;;;;;8.73;4.95;;;20.40;45.60;;;;;;5051515;28;20052;-69
2021/12/22 12:02:57;;;;;;;7.90;4.93;;;20.40;45.10;;;;;;5051388;28;20049;-70
2021/12/22 12:05:30;;;;;;;11.52;5.05;;;20.40;45.00;;;;;;5038810;28;20049;-69
2021/12/22 12:07:56;;;;;;;9.48;5.40;;;20.40;44.70;;;;;;5030188;28;20084;-69
2021/12/22 12:10:38;;;;;;;10.02;5.10;;;20.40;44.30;;;;;;5031132;28;20045;-64
2021/12/22 12:13:15;;;;;;;10.98;5.38;;;20.30;44.10;;;;;;5029862;28;20442;-65
2021/12/22 12:21:58;;;;;;;9.40;4.93;;;20.40;44.80;;;;;;5035397;28;20053;-80
2021/12/22 12:24:30;;;;;;;9.70;4.88;;;20.40;45.10;;;;;;5034632;28;20068;-73
2021/12/22 12:26:55;;;;;;;8.85;4.80;;;20.40;45.30;;;;;;5033979;28;20045;-81
2021/12/22 12:29:56;;;;;;;10.50;5.13;;;20.40;45.30;;;;;;5018032;28;20095;-80
2021/12/22 12:32:40;;;;;;;9.07;4.80;;;20.40;45.60;;;;;;5051315;28;20481;-72
2021/12/22 12:35:20;;;;;;;9.52;5.07;;;20.40;45.90;;;;;;5030530;28;20075;-69
2021/12/22 12:38:16;;;;;;;9.60;4.88;;;20.40;45.90;;;;;;5031246;28;20073;-66
2021/12/22 12:41:05;;;;;;;10.10;5.43;;;20.40;45.90;;;;;;5031941;28;20461;-77
2021/12/22 12:43:47;;;;;;;12.98;4.53;;;20.50;45.90;;;;;;5031595;28;20050;-73
2021/12/22 12:46:27;;;;;;;14.55;5.07;;;20.50;45.90;;;;;;5031257;28;20576;-71
2021/12/22 12:49:08;;;;;;;10.38;4.85;;;20.50;45.90;;;;;;5029966;28;20060;-72
2021/12/22 12:51:36;;;;;;;8.52;4.90;;;20.50;45.90;;;;;;5031418;28;20045;-70
2021/12/22 12:54:18;;;;;;;7.72;4.22;;;20.50;45.90;;;;;;5033311;28;20063;-73
2021/12/22 12:56:47;;;;;;;8.93;4.93;;;20.50;45.90;;;;;;5031541;28;20450;-74
2021/12/22 12:59:14;;;;;;;10.13;5.18;;;20.50;46.00;;;;;;5047794;28;20057;-75
2021/12/22 13:01:50;;;;;;;8.63;4.70;;;20.50;46.00;;;;;;5047459;28;20520;-72
2021/12/22 13:04:35;;;;;;;9.25;4.95;;;20.50;46.20;;;;;;5032408;28;20057;-72
2021/12/22 13:07:07;;;;;;;11.07;5.07;;;20.50;46.20;;;;;;5032888;28;20049;-73
2021/12/22 13:09:53;;;;;;;9.23;4.78;;;20.50;46.20;;;;;;5033200;28;20094;-76
2021/12/22 13:17:46;;;;;;;7.43;4.82;;;20.50;47.00;;;;;;5018456;28;20061;-74
2021/12/22 13:20:19;;;;;;;7.75;4.55;;;20.50;46.30;;;;;;5031616;28;20069;-75
2021/12/22 13:22:46;;;;;;;7.05;4.45;;;20.50;46.30;;;;;;5031444;28;20050;-72
2021/12/22 13:25:17;;;;;;;11.32;4.95;;;20.50;46.30;;;;;;5027767;28;20493;-64